createdAt,value
2016-06-23T00:00:40.114Z,0
2016-06-23T00:01:39.457Z,0
2016-06-23T00:02:39.435Z,0
2016-06-23T00:03:39.417Z,0
2016-06-23T00:04:39.409Z,0
2016-06-23T00:05:39.385Z,0
2016-06-23T00:06:39.376Z,0
2016-06-23T00:07:40.003Z,0
2016-06-23T00:08:39.987Z,0
2016-06-23T00:09:38.691Z,0
2016-06-23T00:10:39.327Z,0
2016-06-23T00:11:39.317Z,0
2016-06-23T00:12:39.294Z,0
2016-06-23T00:13:39.274Z,0
2016-06-23T00:14:39.262Z,0
2016-06-23T00:15:39.895Z,0
2016-06-23T00:16:39.243Z,0
2016-06-23T00:17:39.224Z,0
2016-06-23T00:18:39.845Z,0
2016-06-23T00:19:39.211Z,0
2016-06-23T00:20:39.831Z,0
2016-06-23T00:21:39.814Z,0
2016-06-23T00:22:39.803Z,0
2016-06-23T00:23:39.776Z,0
2016-06-23T00:24:38.479Z,0
2016-06-23T00:25:39.779Z,0
2016-06-23T00:26:39.730Z,0
2016-06-23T00:27:39.701Z,0
2016-06-23T00:28:37.785Z,0
2016-06-23T00:29:38.406Z,0
2016-06-23T00:30:39.033Z,0
2016-06-23T00:31:39.033Z,0
2016-06-23T00:32:39.654Z,0
2016-06-23T00:33:38.983Z,0
2016-06-23T00:34:39.616Z,0
2016-06-23T00:35:39.604Z,0
2016-06-23T00:36:39.582Z,0
2016-06-23T00:37:39.573Z,0
2016-06-23T00:38:38.934Z,0
2016-06-23T00:39:38.899Z,0
2016-06-23T00:40:38.258Z,0
2016-06-23T00:41:38.875Z,0
2016-06-23T00:42:38.867Z,0
2016-06-23T00:43:37.569Z,0
2016-06-23T00:44:39.477Z,0
2016-06-23T00:45:39.473Z,0
2016-06-23T00:46:39.455Z,0
2016-06-23T00:47:38.168Z,0
2016-06-23T00:48:38.783Z,0
2016-06-23T00:49:38.794Z,0
2016-06-23T00:50:38.775Z,0
2016-06-23T00:51:38.104Z,0
2016-06-23T00:52:38.079Z,0
2016-06-23T00:53:38.732Z,0
2016-06-23T00:54:38.685Z,0
2016-06-23T00:55:39.326Z,0
2016-06-23T00:56:38.669Z,0
2016-06-23T00:57:38.661Z,0
2016-06-23T00:58:37.352Z,0
2016-06-23T00:59:39.293Z,0
2016-06-23T01:00:38.618Z,0
2016-06-23T01:01:39.261Z,0
2016-06-23T01:02:39.252Z,0
2016-06-23T01:03:38.565Z,0
2016-06-23T01:04:38.547Z,0
2016-06-23T01:05:37.888Z,0
2016-06-23T01:06:37.258Z,0
2016-06-23T01:07:37.622Z,0
2016-06-23T01:08:38.768Z,0
2016-06-23T01:09:39.214Z,0
2016-06-23T01:10:39.220Z,0
2016-06-23T01:11:37.455Z,0
2016-06-23T01:12:37.946Z,0
2016-06-23T01:13:39.301Z,0
2016-06-23T01:14:38.398Z,0
2016-06-23T01:15:38.400Z,0
2016-06-23T01:16:39.026Z,0
2016-06-23T01:17:38.370Z,0
2016-06-23T01:18:38.996Z,0
2016-06-23T01:19:38.971Z,0
2016-06-23T01:20:37.689Z,0
2016-06-23T01:21:38.949Z,0
2016-06-23T01:22:38.934Z,0
2016-06-23T01:23:38.276Z,0
2016-06-23T01:24:38.917Z,0
2016-06-23T01:25:38.250Z,0
2016-06-23T01:26:38.234Z,0
2016-06-23T01:27:38.215Z,0
2016-06-23T01:28:37.562Z,0
2016-06-23T01:29:38.193Z,0
2016-06-23T01:30:38.197Z,0
2016-06-23T01:31:38.169Z,0
2016-06-23T01:32:38.797Z,0
2016-06-23T01:33:38.137Z,0
2016-06-23T01:34:38.121Z,0
2016-06-23T01:35:38.129Z,0
2016-06-23T01:36:38.737Z,0
2016-06-23T01:37:38.732Z,0
2016-06-23T01:38:38.061Z,0
2016-06-23T01:39:37.399Z,0
2016-06-23T01:40:38.026Z,0
2016-06-23T01:41:38.018Z,0
2016-06-23T01:42:38.672Z,0
2016-06-23T01:43:38.012Z,0
2016-06-23T01:44:37.992Z,0
2016-06-23T01:45:36.673Z,0
2016-06-23T01:46:37.325Z,0
2016-06-23T01:47:38.608Z,0
2016-06-23T01:48:37.907Z,0
2016-06-23T01:49:37.281Z,0
2016-06-23T01:50:38.545Z,0
2016-06-23T01:51:38.499Z,0
2016-06-23T01:52:38.494Z,0
2016-06-23T01:53:38.484Z,0
2016-06-23T01:54:38.457Z,0
2016-06-23T01:55:38.457Z,0
2016-06-23T01:56:38.472Z,0
2016-06-23T01:57:38.413Z,0
2016-06-23T01:58:37.126Z,0
2016-06-23T01:59:37.115Z,0
2016-06-23T02:00:37.105Z,0
2016-06-23T02:01:37.099Z,0
2016-06-23T02:02:37.078Z,0
2016-06-23T02:03:38.345Z,0
2016-06-23T02:04:38.341Z,0
2016-06-23T02:05:38.324Z,0
2016-06-23T02:06:37.675Z,0
2016-06-23T02:07:37.654Z,0
2016-06-23T02:08:36.992Z,0
2016-06-23T02:09:38.252Z,0
2016-06-23T02:10:37.611Z,0
2016-06-23T02:11:38.234Z,0
2016-06-23T02:12:37.580Z,0
2016-06-23T02:13:36.921Z,0
2016-06-23T02:14:36.922Z,0
2016-06-23T02:15:37.546Z,0
2016-06-23T02:16:38.167Z,0
2016-06-23T02:17:37.505Z,0
2016-06-23T02:18:36.850Z,0
2016-06-23T02:19:38.129Z,0
2016-06-23T02:20:37.495Z,0
2016-06-23T02:21:36.826Z,0
2016-06-23T02:22:36.810Z,0
2016-06-23T02:23:37.422Z,0
2016-06-23T02:24:37.396Z,0
2016-06-23T02:25:38.026Z,0
2016-06-23T02:26:38.023Z,0
2016-06-23T02:27:37.364Z,0
2016-06-23T02:28:37.981Z,0
2016-06-23T02:29:36.711Z,0
2016-06-23T02:30:37.313Z,0
2016-06-23T02:31:37.301Z,0
2016-06-23T02:32:37.933Z,0
2016-06-23T02:33:37.262Z,0
2016-06-23T02:34:37.246Z,0
2016-06-23T02:35:36.618Z,0
2016-06-23T02:36:37.243Z,0
2016-06-23T02:37:37.223Z,0
2016-06-23T02:38:36.554Z,0
2016-06-23T02:39:37.173Z,0
2016-06-23T02:40:37.167Z,0
2016-06-23T02:41:36.518Z,0
2016-06-23T02:42:36.492Z,0
2016-06-23T02:43:37.771Z,0
2016-06-23T02:44:37.107Z,0
2016-06-23T02:45:37.087Z,0
2016-06-23T02:46:37.082Z,0
2016-06-23T02:47:37.690Z,0
2016-06-23T02:48:37.669Z,0
2016-06-23T02:49:37.669Z,0
2016-06-23T02:50:36.434Z,0
2016-06-23T02:51:37.012Z,0
2016-06-23T02:52:37.002Z,0
2016-06-23T02:53:36.978Z,0
2016-06-23T02:54:36.330Z,0
2016-06-23T02:55:37.591Z,0
2016-06-23T02:56:37.621Z,0
2016-06-23T02:57:36.269Z,0
2016-06-23T02:58:36.908Z,0
2016-06-23T02:59:35.624Z,0
2016-06-23T03:00:36.869Z,0
2016-06-23T03:01:37.508Z,0
2016-06-23T03:02:36.842Z,0
2016-06-23T03:03:36.823Z,0
2016-06-23T03:04:37.459Z,0
2016-06-23T03:05:37.442Z,0
2016-06-23T03:06:36.793Z,0
2016-06-23T03:07:36.783Z,0
2016-06-23T03:08:36.768Z,0
2016-06-23T03:09:36.727Z,0
2016-06-23T03:10:36.092Z,0
2016-06-23T03:11:36.718Z,0
2016-06-23T03:12:35.431Z,0
2016-06-23T03:13:35.408Z,0
2016-06-23T03:14:36.674Z,0
2016-06-23T03:15:36.025Z,0
2016-06-23T03:16:37.305Z,0
2016-06-23T03:17:36.612Z,0
2016-06-23T03:18:37.265Z,0
2016-06-23T03:19:35.954Z,0
2016-06-23T03:20:36.588Z,0
2016-06-23T03:21:36.579Z,0
2016-06-23T03:22:37.202Z,0
2016-06-23T03:23:36.536Z,0
2016-06-23T03:24:35.904Z,0
2016-06-23T03:25:35.875Z,0
2016-06-23T03:26:37.139Z,0
2016-06-23T03:27:35.865Z,0
2016-06-23T03:28:35.811Z,0
2016-06-23T03:29:36.458Z,0
2016-06-23T03:30:37.070Z,0
2016-06-23T03:31:36.455Z,0
2016-06-23T03:32:35.804Z,0
2016-06-23T03:33:37.027Z,0
2016-06-23T03:34:35.748Z,0
2016-06-23T03:35:36.382Z,0
2016-06-23T03:36:36.995Z,0
2016-06-23T03:37:36.980Z,0
2016-06-23T03:38:36.322Z,0
2016-06-23T03:39:36.931Z,0
2016-06-23T03:40:35.018Z,0
2016-06-23T03:41:35.630Z,0
2016-06-23T03:42:36.258Z,0
2016-06-23T03:43:36.238Z,0
2016-06-23T03:44:36.259Z,0
2016-06-23T03:45:36.227Z,0
2016-06-23T03:46:35.569Z,0
2016-06-23T03:47:36.197Z,0
2016-06-23T03:48:35.541Z,0
2016-06-23T03:49:36.814Z,0
2016-06-23T03:50:34.920Z,0
2016-06-23T03:51:36.139Z,0
2016-06-23T03:52:36.746Z,0
2016-06-23T03:53:36.727Z,0
2016-06-23T03:54:36.741Z,0
2016-06-23T03:55:35.420Z,0
2016-06-23T03:56:36.704Z,0
2016-06-23T03:57:35.405Z,0
2016-06-23T03:58:36.669Z,0
2016-06-23T03:59:36.637Z,0
2016-06-23T04:00:35.350Z,0
2016-06-23T04:01:35.996Z,0
2016-06-23T04:02:36.627Z,0
2016-06-23T04:03:36.632Z,0
2016-06-23T04:04:36.584Z,0
2016-06-23T04:05:35.917Z,0
2016-06-23T04:06:36.557Z,0
2016-06-23T04:07:35.910Z,0
2016-06-23T04:08:35.240Z,0
2016-06-23T04:09:36.484Z,0
2016-06-23T04:10:36.497Z,0
2016-06-23T04:11:35.839Z,0
2016-06-23T04:12:35.819Z,0
2016-06-23T04:13:35.170Z,0
2016-06-23T04:14:36.424Z,0
2016-06-23T04:15:35.137Z,0
2016-06-23T04:16:35.111Z,0
2016-06-23T04:17:35.741Z,0
2016-06-23T04:18:35.732Z,0
2016-06-23T04:19:36.343Z,0
2016-06-23T04:20:36.337Z,0
2016-06-23T04:21:36.364Z,0
2016-06-23T04:22:35.679Z,0
2016-06-23T04:23:35.660Z,0
2016-06-23T04:24:35.654Z,0
2016-06-23T04:25:35.625Z,0
2016-06-23T04:26:35.605Z,0
2016-06-23T04:27:35.605Z,0
2016-06-23T04:28:34.314Z,0
2016-06-23T04:29:34.926Z,0
2016-06-23T04:30:36.213Z,0
2016-06-23T04:31:35.558Z,0
2016-06-23T04:32:36.165Z,0
2016-06-23T04:33:35.519Z,0
2016-06-23T04:34:35.489Z,0
2016-06-23T04:35:36.162Z,0
2016-06-23T04:36:34.835Z,0
2016-06-23T04:37:36.085Z,0
2016-06-23T04:38:35.449Z,0
2016-06-23T04:39:36.078Z,0
2016-06-23T04:40:36.044Z,0
2016-06-23T04:41:35.378Z,0
2016-06-23T04:42:34.097Z,0
2016-06-23T04:43:35.370Z,0
2016-06-23T04:44:35.987Z,0
2016-06-23T04:45:35.334Z,0
2016-06-23T04:46:35.967Z,0
2016-06-23T04:47:34.675Z,0
2016-06-23T04:48:35.934Z,0
2016-06-23T04:49:35.273Z,0
2016-06-23T04:50:35.261Z,0
2016-06-23T04:51:35.237Z,0
2016-06-23T04:52:34.602Z,0
2016-06-23T04:53:35.221Z,0
2016-06-23T04:54:35.188Z,0
2016-06-23T04:55:35.205Z,0
2016-06-23T04:56:33.890Z,0
2016-06-23T04:57:34.522Z,0
2016-06-23T04:58:35.792Z,0
2016-06-23T04:59:34.472Z,0
2016-06-23T05:00:34.475Z,0
2016-06-23T05:01:34.448Z,0
2016-06-23T05:02:35.083Z,0
2016-06-23T05:03:35.062Z,0
2016-06-23T05:04:35.683Z,0
2016-06-23T05:05:34.401Z,0
2016-06-23T05:06:34.382Z,0
2016-06-23T05:07:34.999Z,0
2016-06-23T05:08:34.985Z,0
2016-06-23T05:09:34.356Z,0
2016-06-23T05:10:34.319Z,0
2016-06-23T05:11:34.303Z,0
2016-06-23T05:12:34.303Z,0
2016-06-23T05:13:35.563Z,0
2016-06-23T05:14:34.276Z,0
2016-06-23T05:15:35.547Z,0
2016-06-23T05:16:34.896Z,5
2016-06-23T05:17:34.871Z,5
2016-06-23T05:18:34.853Z,5
2016-06-23T05:19:34.855Z,5
2016-06-23T05:20:32.925Z,5
2016-06-23T05:21:35.437Z,5
2016-06-23T05:22:35.458Z,5
2016-06-23T05:23:35.427Z,5
2016-06-23T05:24:34.779Z,5
2016-06-23T05:25:34.741Z,5
2016-06-23T05:26:34.743Z,10
2016-06-23T05:27:34.747Z,10
2016-06-23T05:28:35.356Z,10
2016-06-23T05:29:34.052Z,10
2016-06-23T05:30:35.312Z,10
2016-06-23T05:31:35.298Z,10
2016-06-23T05:32:34.007Z,10
2016-06-23T05:33:35.306Z,10
2016-06-23T05:34:34.635Z,15
2016-06-23T05:35:33.962Z,15
2016-06-23T05:36:34.583Z,15
2016-06-23T05:37:34.602Z,15
2016-06-23T05:38:34.586Z,15
2016-06-23T05:39:35.190Z,15
2016-06-23T05:40:35.206Z,15
2016-06-23T05:41:34.506Z,15
2016-06-23T05:42:34.497Z,15
2016-06-23T05:43:34.481Z,20
2016-06-23T05:44:34.449Z,20
2016-06-23T05:45:34.469Z,20
2016-06-23T05:46:34.438Z,20
2016-06-23T05:47:34.425Z,20
2016-06-23T05:48:33.791Z,20
2016-06-23T05:49:33.742Z,20
2016-06-23T05:50:35.030Z,20
2016-06-23T05:51:34.370Z,25
2016-06-23T05:52:34.358Z,25
2016-06-23T05:53:34.371Z,25
2016-06-23T05:54:33.695Z,25
2016-06-23T05:55:34.309Z,25
2016-06-23T05:56:34.298Z,25
2016-06-23T05:57:34.268Z,25
2016-06-23T05:58:34.279Z,25
2016-06-23T05:59:33.622Z,25
2016-06-23T06:00:34.887Z,30
2016-06-23T06:01:34.885Z,30
2016-06-23T06:02:33.574Z,30
2016-06-23T06:03:34.416Z,30
2016-06-23T06:04:34.206Z,30
2016-06-23T06:05:33.546Z,30
2016-06-23T06:06:34.143Z,30
2016-06-23T06:07:34.771Z,30
2016-06-23T06:08:34.770Z,30
2016-06-23T06:09:34.759Z,30
2016-06-23T06:10:34.119Z,35
2016-06-23T06:11:33.454Z,35
2016-06-23T06:12:34.040Z,35
2016-06-23T06:13:33.422Z,35
2016-06-23T06:14:34.043Z,35
2016-06-23T06:15:32.088Z,35
2016-06-23T06:16:33.993Z,35
2016-06-23T06:17:34.626Z,35
2016-06-23T06:18:33.973Z,35
2016-06-23T06:19:33.949Z,35
2016-06-23T06:20:33.938Z,40
2016-06-23T06:21:33.305Z,40
2016-06-23T06:22:34.565Z,40
2016-06-23T06:23:34.529Z,40
2016-06-23T06:24:34.525Z,40
2016-06-23T06:25:33.234Z,40
2016-06-23T06:26:34.491Z,40
2016-06-23T06:27:34.481Z,40
2016-06-23T06:28:34.453Z,40
2016-06-23T06:29:34.464Z,40
2016-06-23T06:30:34.453Z,40
2016-06-23T06:31:32.503Z,40
2016-06-23T06:32:34.420Z,40
2016-06-23T06:33:34.390Z,45
2016-06-23T06:34:33.741Z,45
2016-06-23T06:35:32.448Z,45
2016-06-23T06:36:34.338Z,45
2016-06-23T06:37:32.436Z,45
2016-06-23T06:38:33.690Z,50
2016-06-23T06:39:33.653Z,55
2016-06-23T06:40:33.645Z,55
2016-06-23T06:41:34.269Z,50
2016-06-23T06:42:33.623Z,50
2016-06-23T06:43:34.242Z,50
2016-06-23T06:44:34.225Z,50
2016-06-23T06:45:33.590Z,50
2016-06-23T06:46:34.192Z,50
2016-06-23T06:47:34.195Z,50
2016-06-23T06:48:34.185Z,55
2016-06-23T06:49:32.247Z,55
2016-06-23T06:50:33.522Z,60
2016-06-23T06:51:34.157Z,70
2016-06-23T06:52:33.483Z,75
2016-06-23T06:53:34.095Z,75
2016-06-23T06:54:33.460Z,75
2016-06-23T06:55:32.810Z,75
2016-06-23T06:56:34.051Z,75
2016-06-23T06:57:34.042Z,75
2016-06-23T06:58:32.752Z,80
2016-06-23T06:59:32.738Z,85
2016-06-23T07:00:33.361Z,90
2016-06-23T07:01:33.992Z,80
2016-06-23T07:02:32.044Z,85
2016-06-23T07:03:33.351Z,80
2016-06-23T07:04:33.295Z,80
2016-06-23T07:05:33.937Z,80
2016-06-23T07:06:33.306Z,80
2016-06-23T07:07:32.614Z,80
2016-06-23T07:08:33.879Z,80
2016-06-23T07:09:33.875Z,85
2016-06-23T07:10:32.573Z,90
2016-06-23T07:11:31.941Z,90
2016-06-23T07:12:32.571Z,90
2016-06-23T07:13:33.165Z,90
2016-06-23T07:14:32.522Z,95
2016-06-23T07:15:33.845Z,95
2016-06-23T07:16:33.795Z,95
2016-06-23T07:17:33.156Z,95
2016-06-23T07:18:33.114Z,95
2016-06-23T07:19:33.094Z,100
2016-06-23T07:20:33.078Z,95
2016-06-23T07:21:33.693Z,100
2016-06-23T07:22:32.418Z,100
2016-06-23T07:23:33.694Z,110
2016-06-23T07:24:33.681Z,115
2016-06-23T07:25:33.682Z,120
2016-06-23T07:26:33.635Z,115
2016-06-23T07:27:32.984Z,110
2016-06-23T07:28:33.620Z,105
2016-06-23T07:29:32.981Z,120
2016-06-23T07:30:32.993Z,135
2016-06-23T07:31:32.943Z,135
2016-06-23T07:32:32.912Z,140
2016-06-23T07:33:32.896Z,135
2016-06-23T07:34:33.513Z,135
2016-06-23T07:35:32.256Z,135
2016-06-23T07:36:32.897Z,140
2016-06-23T07:37:32.842Z,135
2016-06-23T07:38:32.187Z,125
2016-06-23T07:39:32.835Z,125
2016-06-23T07:40:32.190Z,130
2016-06-23T07:41:32.795Z,130
2016-06-23T07:42:33.443Z,125
2016-06-23T07:43:33.406Z,125
2016-06-23T07:44:33.388Z,130
2016-06-23T07:45:32.764Z,130
2016-06-23T07:46:33.383Z,130
2016-06-23T07:47:33.375Z,125
2016-06-23T07:48:32.056Z,115
2016-06-23T07:49:33.308Z,110
2016-06-23T07:50:32.063Z,105
2016-06-23T07:51:32.666Z,110
2016-06-23T07:52:32.699Z,110
2016-06-23T07:53:32.620Z,110
2016-06-23T07:54:31.981Z,110
2016-06-23T07:55:33.236Z,110
2016-06-23T07:56:31.965Z,110
2016-06-23T07:57:31.971Z,115
2016-06-23T07:58:32.615Z,115
2016-06-23T07:59:32.560Z,115
2016-06-23T08:00:32.549Z,120
2016-06-23T08:01:33.163Z,120
2016-06-23T08:02:32.546Z,135
2016-06-23T08:03:33.199Z,140
2016-06-23T08:04:31.819Z,150
2016-06-23T08:05:31.833Z,150
2016-06-23T08:06:32.455Z,150
2016-06-23T08:07:32.456Z,155
2016-06-23T08:08:32.443Z,155
2016-06-23T08:09:33.283Z,150
2016-06-23T08:10:31.776Z,145
2016-06-23T08:11:32.385Z,140
2016-06-23T08:12:32.398Z,140
2016-06-23T08:13:32.991Z,145
2016-06-23T08:14:32.353Z,155
2016-06-23T08:15:32.966Z,160
2016-06-23T08:16:32.320Z,165
2016-06-23T08:17:32.293Z,165
2016-06-23T08:18:32.294Z,170
2016-06-23T08:19:32.316Z,170
2016-06-23T08:20:32.970Z,180
2016-06-23T08:21:32.890Z,190
2016-06-23T08:22:32.879Z,190
2016-06-23T08:23:32.237Z,195
2016-06-23T08:24:32.871Z,195
2016-06-23T08:25:32.215Z,195
2016-06-23T08:26:30.894Z,190
2016-06-23T08:27:32.750Z,190
2016-06-23T08:28:32.188Z,190
2016-06-23T08:29:32.138Z,185
2016-06-23T08:30:32.770Z,185
2016-06-23T08:31:32.771Z,190
2016-06-23T08:32:31.449Z,200
2016-06-23T08:33:32.741Z,205
2016-06-23T08:34:32.075Z,205
2016-06-23T08:35:32.311Z,210
2016-06-23T08:36:32.062Z,215
2016-06-23T08:37:32.046Z,210
2016-06-23T08:38:32.655Z,210
2016-06-23T08:39:32.650Z,215
2016-06-23T08:40:32.001Z,215
2016-06-23T08:41:31.335Z,215
2016-06-23T08:42:31.956Z,210
2016-06-23T08:43:31.967Z,200
2016-06-23T08:44:32.586Z,195
2016-06-23T08:45:31.930Z,195
2016-06-23T08:46:32.497Z,200
2016-06-23T08:47:32.559Z,200
2016-06-23T08:48:32.584Z,205
2016-06-23T08:49:31.881Z,205
2016-06-23T08:50:31.870Z,210
2016-06-23T08:51:31.878Z,210
2016-06-23T08:52:31.851Z,215
2016-06-23T08:53:31.830Z,215
2016-06-23T08:54:31.839Z,220
2016-06-23T08:55:31.825Z,225
2016-06-23T08:56:31.806Z,215
2016-06-23T08:57:32.435Z,215
2016-06-23T08:58:32.408Z,220
2016-06-23T08:59:31.765Z,235
2016-06-23T09:00:31.113Z,235
2016-06-23T09:01:31.101Z,225
2016-06-23T09:02:32.364Z,220
2016-06-23T09:03:31.086Z,220
2016-06-23T09:04:30.436Z,235
2016-06-23T09:05:32.318Z,235
2016-06-23T09:06:31.670Z,235
2016-06-23T09:07:32.293Z,235
2016-06-23T09:08:31.650Z,230
2016-06-23T09:09:31.646Z,230
2016-06-23T09:10:32.265Z,240
2016-06-23T09:11:31.630Z,245
2016-06-23T09:12:30.963Z,255
2016-06-23T09:13:30.938Z,265
2016-06-23T09:14:32.339Z,275
2016-06-23T09:15:31.574Z,265
2016-06-23T09:16:32.197Z,255
2016-06-23T09:17:32.165Z,250
2016-06-23T09:18:30.250Z,250
2016-06-23T09:19:31.519Z,240
2016-06-23T09:20:30.862Z,235
2016-06-23T09:21:31.525Z,230
2016-06-23T09:22:31.485Z,240
2016-06-23T09:23:32.105Z,265
2016-06-23T09:24:32.108Z,275
2016-06-23T09:25:30.190Z,290
2016-06-23T09:26:32.092Z,315
2016-06-23T09:27:30.803Z,305
2016-06-23T09:28:31.411Z,300
2016-06-23T09:29:32.065Z,300
2016-06-23T09:30:30.759Z,295
2016-06-23T09:31:32.030Z,290
2016-06-23T09:32:31.349Z,280
2016-06-23T09:33:32.007Z,280
2016-06-23T09:34:31.995Z,285
2016-06-23T09:35:31.341Z,290
2016-06-23T09:36:30.682Z,290
2016-06-23T09:37:31.972Z,300
2016-06-23T09:38:31.971Z,300
2016-06-23T09:39:31.275Z,315
2016-06-23T09:40:31.294Z,325
2016-06-23T09:41:31.270Z,315
2016-06-23T09:42:30.612Z,295
2016-06-23T09:43:31.921Z,280
2016-06-23T09:44:31.234Z,270
2016-06-23T09:45:31.208Z,280
2016-06-23T09:46:31.188Z,295
2016-06-23T09:47:31.202Z,310
2016-06-23T09:48:30.549Z,320
2016-06-23T09:49:31.145Z,325
2016-06-23T09:50:31.790Z,315
2016-06-23T09:51:31.135Z,305
2016-06-23T09:52:31.106Z,300
2016-06-23T09:53:31.772Z,295
2016-06-23T09:54:31.738Z,290
2016-06-23T09:55:31.309Z,290
2016-06-23T09:56:31.071Z,290
2016-06-23T09:57:30.424Z,300
2016-06-23T09:58:30.435Z,320
2016-06-23T09:59:31.093Z,330
2016-06-23T10:00:29.127Z,335
2016-06-23T10:01:31.653Z,345
2016-06-23T10:02:31.007Z,365
2016-06-23T10:03:31.030Z,360
2016-06-23T10:04:30.978Z,335
2016-06-23T10:05:30.336Z,315
2016-06-23T10:06:30.980Z,315
2016-06-23T10:07:31.988Z,320
2016-06-23T10:08:30.941Z,325
2016-06-23T10:09:30.343Z,340
2016-06-23T10:10:30.986Z,355
2016-06-23T10:11:31.534Z,370
2016-06-23T10:12:30.269Z,370
2016-06-23T10:13:31.529Z,345
2016-06-23T10:14:31.519Z,340
2016-06-23T10:15:30.227Z,340
2016-06-23T10:16:30.878Z,350
2016-06-23T10:17:31.467Z,350
2016-06-23T10:18:31.778Z,360
2016-06-23T10:19:31.497Z,375
2016-06-23T10:20:31.456Z,390
2016-06-23T10:21:30.161Z,380
2016-06-23T10:22:31.410Z,385
2016-06-23T10:23:30.140Z,350
2016-06-23T10:24:31.395Z,315
2016-06-23T10:25:31.406Z,295
2016-06-23T10:26:31.385Z,300
2016-06-23T10:27:31.363Z,325
2016-06-23T10:28:31.323Z,355
2016-06-23T10:29:30.783Z,345
2016-06-23T10:30:31.352Z,300
2016-06-23T10:31:30.670Z,300
2016-06-23T10:32:30.731Z,335
2016-06-23T10:33:30.642Z,270
2016-06-23T10:34:30.666Z,270
2016-06-23T10:35:31.298Z,290
2016-06-23T10:36:31.257Z,270
2016-06-23T10:37:31.278Z,255
2016-06-23T10:38:30.630Z,270
2016-06-23T10:39:31.227Z,250
2016-06-23T10:40:31.220Z,235
2016-06-23T10:41:31.239Z,255
2016-06-23T10:42:30.565Z,350
2016-06-23T10:43:30.558Z,360
2016-06-23T10:44:29.935Z,375
2016-06-23T10:45:30.519Z,355
2016-06-23T10:46:31.646Z,435
2016-06-23T10:47:29.848Z,460
2016-06-23T10:48:30.886Z,455
2016-06-23T10:49:30.518Z,460
2016-06-23T10:50:30.501Z,450
2016-06-23T10:51:30.464Z,405
2016-06-23T10:52:29.820Z,355
2016-06-23T10:53:30.523Z,350
2016-06-23T10:54:30.422Z,370
2016-06-23T10:55:31.158Z,370
2016-06-23T10:56:30.584Z,350
2016-06-23T10:57:30.832Z,350
2016-06-23T10:58:31.269Z,330
2016-06-23T10:59:31.924Z,315
2016-06-23T11:00:31.163Z,340
2016-06-23T11:01:30.499Z,330
2016-06-23T11:02:31.034Z,350
2016-06-23T11:03:30.947Z,350
2016-06-23T11:04:31.094Z,310
2016-06-23T11:05:30.282Z,335
2016-06-23T11:06:30.919Z,415
2016-06-23T11:07:30.319Z,340
2016-06-23T11:08:30.310Z,365
2016-06-23T11:09:30.282Z,355
2016-06-23T11:10:31.919Z,360
2016-06-23T11:11:30.238Z,355
2016-06-23T11:12:30.899Z,330
2016-06-23T11:13:30.251Z,320
2016-06-23T11:14:30.262Z,350
2016-06-23T11:15:30.574Z,360
2016-06-23T11:16:30.846Z,315
2016-06-23T11:17:30.177Z,350
2016-06-23T11:18:30.563Z,345
2016-06-23T11:19:30.934Z,325
2016-06-23T11:20:30.309Z,305
2016-06-23T11:21:30.225Z,295
2016-06-23T11:22:30.147Z,275
2016-06-23T11:23:30.957Z,270
2016-06-23T11:24:30.086Z,270
2016-06-23T11:25:30.154Z,275
2016-06-23T11:26:30.684Z,285
2016-06-23T11:27:29.447Z,285
2016-06-23T11:28:29.506Z,300
2016-06-23T11:29:30.722Z,315
2016-06-23T11:30:30.294Z,305
2016-06-23T11:31:30.673Z,280
2016-06-23T11:32:30.095Z,270
2016-06-23T11:33:29.986Z,285
2016-06-23T11:34:29.990Z,495
2016-06-23T11:35:30.035Z,600
2016-06-23T11:36:30.599Z,460
2016-06-23T11:37:30.790Z,395
2016-06-23T11:38:30.119Z,290
2016-06-23T11:39:30.620Z,285
2016-06-23T11:40:28.756Z,590
2016-06-23T11:41:30.811Z,1460
2016-06-23T11:42:29.289Z,2070
2016-06-23T11:43:29.971Z,2135
2016-06-23T11:44:30.537Z,2085
2016-06-23T11:45:29.284Z,2000
2016-06-23T11:46:30.057Z,2095
2016-06-23T11:47:30.724Z,2205
2016-06-23T11:48:29.954Z,2185
2016-06-23T11:49:28.626Z,2130
2016-06-23T11:50:30.512Z,2040
2016-06-23T11:51:30.498Z,1980
2016-06-23T11:52:30.513Z,2095
2016-06-23T11:53:29.863Z,2150
2016-06-23T11:54:30.472Z,2195
2016-06-23T11:55:29.169Z,2150
2016-06-23T11:56:29.811Z,2140
2016-06-23T11:57:30.460Z,2205
2016-06-23T11:58:29.827Z,2225
2016-06-23T11:59:29.174Z,2175
2016-06-23T12:00:29.803Z,2125
2016-06-23T12:01:29.774Z,2160
2016-06-23T12:02:30.421Z,2130
2016-06-23T12:03:29.793Z,2190
2016-06-23T12:04:29.785Z,2165
2016-06-23T12:05:30.437Z,2160
2016-06-23T12:06:29.290Z,2225
2016-06-23T12:07:30.647Z,2230
2016-06-23T12:08:29.760Z,2210
2016-06-23T12:09:29.757Z,2120
2016-06-23T12:10:29.126Z,2000
2016-06-23T12:11:30.410Z,1925
2016-06-23T12:12:30.381Z,2010
2016-06-23T12:13:29.759Z,2250
2016-06-23T12:14:30.417Z,2260
2016-06-23T12:15:29.096Z,2165
2016-06-23T12:16:30.377Z,2070
2016-06-23T12:17:29.107Z,2080
2016-06-23T12:18:30.414Z,2055
2016-06-23T12:19:28.505Z,1585
2016-06-23T12:20:29.098Z,1020
2016-06-23T12:21:30.361Z,690
2016-06-23T12:22:29.732Z,690
2016-06-23T12:23:29.746Z,685
2016-06-23T12:24:30.391Z,625
2016-06-23T12:25:29.778Z,575
2016-06-23T12:26:29.746Z,540
2016-06-23T12:27:29.711Z,530
2016-06-23T12:28:29.745Z,520
2016-06-23T12:29:29.090Z,510
2016-06-23T12:30:29.094Z,510
2016-06-23T12:31:29.719Z,520
2016-06-23T12:32:29.733Z,505
2016-06-23T12:33:29.086Z,490
2016-06-23T12:34:30.378Z,490
2016-06-23T12:35:29.732Z,490
2016-06-23T12:36:30.381Z,480
2016-06-23T12:37:29.778Z,485
2016-06-23T12:38:29.086Z,485
2016-06-23T12:39:29.746Z,480
2016-06-23T12:40:30.357Z,480
2016-06-23T12:41:29.731Z,480
2016-06-23T12:42:30.395Z,480
2016-06-23T12:43:30.355Z,480
2016-06-23T12:44:29.083Z,485
2016-06-23T12:45:29.085Z,480
2016-06-23T12:46:29.751Z,485
2016-06-23T12:47:30.351Z,485
2016-06-23T12:48:30.217Z,495
2016-06-23T12:49:30.346Z,495
2016-06-23T12:50:29.719Z,495
2016-06-23T12:51:29.723Z,495
2016-06-23T12:52:29.708Z,500
2016-06-23T12:53:29.718Z,505
2016-06-23T12:54:29.068Z,510
2016-06-23T12:55:29.703Z,510
2016-06-23T12:56:30.357Z,520
2016-06-23T12:57:29.691Z,520
2016-06-23T12:58:30.361Z,530
2016-06-23T12:59:29.696Z,535
2016-06-23T13:00:29.687Z,540
2016-06-23T13:01:30.342Z,545
2016-06-23T13:02:29.691Z,555
2016-06-23T13:03:29.693Z,565
2016-06-23T13:04:30.323Z,580
2016-06-23T13:05:30.360Z,595
2016-06-23T13:06:30.329Z,620
2016-06-23T13:07:29.041Z,660
2016-06-23T13:08:29.043Z,775
2016-06-23T13:09:30.360Z,1195
2016-06-23T13:10:30.366Z,1810
2016-06-23T13:11:30.381Z,2310
2016-06-23T13:12:30.362Z,2360
2016-06-23T13:13:30.334Z,2230
2016-06-23T13:14:29.696Z,2250
2016-06-23T13:15:30.406Z,2205
2016-06-23T13:16:30.314Z,2290
2016-06-23T13:17:30.336Z,2325
2016-06-23T13:18:29.055Z,2060
2016-06-23T13:19:30.342Z,2280
2016-06-23T13:20:29.689Z,2370
2016-06-23T13:21:29.978Z,2290
2016-06-23T13:22:29.069Z,2380
2016-06-23T13:23:30.338Z,2420
2016-06-23T13:24:29.691Z,2445
2016-06-23T13:25:29.671Z,2315
2016-06-23T13:26:29.682Z,2300
2016-06-23T13:27:28.414Z,2500
2016-06-23T13:28:30.339Z,2510
2016-06-23T13:29:30.318Z,2320
2016-06-23T13:30:30.347Z,2320
2016-06-23T13:31:29.686Z,2385
2016-06-23T13:32:29.678Z,2235
2016-06-23T13:33:30.551Z,2175
2016-06-23T13:34:29.972Z,2340
2016-06-23T13:35:29.062Z,2375
2016-06-23T13:36:30.321Z,2400
2016-06-23T13:37:29.682Z,2300
2016-06-23T13:38:29.703Z,2315
2016-06-23T13:39:30.333Z,2395
2016-06-23T13:40:28.394Z,2385
2016-06-23T13:41:30.398Z,2380
2016-06-23T13:42:29.732Z,2355
2016-06-23T13:43:30.325Z,2425
2016-06-23T13:44:29.693Z,2415
2016-06-23T13:45:30.324Z,2380
2016-06-23T13:46:29.714Z,2385
2016-06-23T13:47:29.705Z,2200
2016-06-23T13:48:29.691Z,2225
2016-06-23T13:49:30.314Z,2330
2016-06-23T13:50:29.729Z,2345
2016-06-23T13:51:29.111Z,2385
2016-06-23T13:52:30.421Z,2395
2016-06-23T13:53:29.042Z,2400
2016-06-23T13:54:29.726Z,2500
2016-06-23T13:55:29.735Z,2540
2016-06-23T13:56:30.372Z,2455
2016-06-23T13:57:30.378Z,2415
2016-06-23T13:58:30.353Z,2350
2016-06-23T13:59:30.617Z,2355
2016-06-23T14:00:29.794Z,2355
2016-06-23T14:01:30.531Z,2160
2016-06-23T14:02:29.747Z,2100
2016-06-23T14:03:30.511Z,2300
2016-06-23T14:04:29.860Z,2285
2016-06-23T14:05:29.608Z,2320
2016-06-23T14:06:30.995Z,2205
2016-06-23T14:07:29.756Z,2150
2016-06-23T14:08:29.057Z,2335